sensor_id;sensor_type;location;lat;lon;timestamp;temperature;humidity
65472;DHT22;52068;50.710;14.492;2023-05-07T00:00:18;23.75;47.00
65472;DHT22;52068;50.710;14.492;2023-05-07T00:02:44;23.76;46.82
65472;DHT22;52068;50.710;14.492;2023-05-07T00:05:09;23.76;47.12
65472;DHT22;52068;50.710;14.492;2023-05-07T00:07:35;23.78;47.02
65472;DHT22;52068;50.710;14.492;2023-05-07T00:10:00;23.78;47.15
65472;DHT22;52068;50.710;14.492;2023-05-07T00:12:25;23.75;46.87
65472;DHT22;52068;50.710;14.492;2023-05-07T00:14:50;23.74;46.95
65472;DHT22;52068;50.710;14.492;2023-05-07T00:17:16;23.74;47.06
65472;DHT22;52068;50.710;14.492;2023-05-07T00:19:41;23.72;47.03
65472;DHT22;52068;50.710;14.492;2023-05-07T00:22:08;23.75;46.97
65472;DHT22;52068;50.710;14.492;2023-05-07T00:24:33;23.74;46.86
65472;DHT22;52068;50.710;14.492;2023-05-07T00:26:59;23.71;46.71
65472;DHT22;52068;50.710;14.492;2023-05-07T00:29:25;23.72;46.49
65472;DHT22;52068;50.710;14.492;2023-05-07T00:31:50;23.69;46.36
65472;DHT22;52068;50.710;14.492;2023-05-07T00:34:16;23.69;46.13
65472;DHT22;52068;50.710;14.492;2023-05-07T00:36:41;23.69;46.35
65472;DHT22;52068;50.710;14.492;2023-05-07T00:39:06;23.68;46.58
65472;DHT22;52068;50.710;14.492;2023-05-07T00:41:31;23.66;46.84
65472;DHT22;52068;50.710;14.492;2023-05-07T00:43:57;23.65;46.87
65472;DHT22;52068;50.710;14.492;2023-05-07T00:46:22;23.64;46.91
65472;DHT22;52068;50.710;14.492;2023-05-07T00:48:48;23.68;47.03
65472;DHT22;52068;50.710;14.492;2023-05-07T00:51:14;23.66;46.98
65472;DHT22;52068;50.710;14.492;2023-05-07T00:53:40;23.68;47.14
65472;DHT22;52068;50.710;14.492;2023-05-07T00:56:05;23.65;47.03
65472;DHT22;52068;50.710;14.492;2023-05-07T00:58:31;23.66;47.20
65472;DHT22;52068;50.710;14.492;2023-05-07T01:00:57;23.66;47.22
65472;DHT22;52068;50.710;14.492;2023-05-07T01:03:23;23.66;47.07
65472;DHT22;52068;50.710;14.492;2023-05-07T01:05:48;23.69;46.92
65472;DHT22;52068;50.710;14.492;2023-05-07T01:08:14;23.69;47.00
65472;DHT22;52068;50.710;14.492;2023-05-07T01:10:40;23.68;47.01
65472;DHT22;52068;50.710;14.492;2023-05-07T01:13:08;23.71;47.00
65472;DHT22;52068;50.710;14.492;2023-05-07T01:15:33;23.68;47.00
65472;DHT22;52068;50.710;14.492;2023-05-07T01:17:59;23.68;47.07
65472;DHT22;52068;50.710;14.492;2023-05-07T01:20:24;23.66;47.10
65472;DHT22;52068;50.710;14.492;2023-05-07T01:22:50;23.69;47.08
65472;DHT22;52068;50.710;14.492;2023-05-07T01:25:15;23.66;47.05
65472;DHT22;52068;50.710;14.492;2023-05-07T01:27:41;23.66;46.80
65472;DHT22;52068;50.710;14.492;2023-05-07T01:30:07;23.64;46.95
65472;DHT22;52068;50.710;14.492;2023-05-07T01:32:33;23.65;46.67
65472;DHT22;52068;50.710;14.492;2023-05-07T01:35:00;23.66;46.85
65472;DHT22;52068;50.710;14.492;2023-05-07T01:37:27;23.64;46.78
65472;DHT22;52068;50.710;14.492;2023-05-07T01:39:53;23.62;47.06
65472;DHT22;52068;50.710;14.492;2023-05-07T01:42:19;23.61;47.16
65472;DHT22;52068;50.710;14.492;2023-05-07T01:44:44;23.62;46.90
65472;DHT22;52068;50.710;14.492;2023-05-07T01:47:09;23.59;47.00
65472;DHT22;52068;50.710;14.492;2023-05-07T01:49:35;23.61;47.28
65472;DHT22;52068;50.710;14.492;2023-05-07T01:52:01;23.62;47.21
65472;DHT22;52068;50.710;14.492;2023-05-07T01:54:26;23.61;47.13
65472;DHT22;52068;50.710;14.492;2023-05-07T01:56:58;23.64;47.38
65472;DHT22;52068;50.710;14.492;2023-05-07T01:59:23;23.64;47.10
65472;DHT22;52068;50.710;14.492;2023-05-07T02:01:49;23.59;47.34
65472;DHT22;52068;50.710;14.492;2023-05-07T02:04:14;23.65;47.42
65472;DHT22;52068;50.710;14.492;2023-05-07T02:06:40;23.64;47.31
65472;DHT22;52068;50.710;14.492;2023-05-07T02:09:05;23.62;47.50
65472;DHT22;52068;50.710;14.492;2023-05-07T02:11:30;23.62;47.44
65472;DHT22;52068;50.710;14.492;2023-05-07T02:13:55;23.61;47.29
65472;DHT22;52068;50.710;14.492;2023-05-07T02:16:21;23.61;47.54
65472;DHT22;52068;50.710;14.492;2023-05-07T02:18:47;23.64;47.36
65472;DHT22;52068;50.710;14.492;2023-05-07T02:21:12;23.59;47.45
65472;DHT22;52068;50.710;14.492;2023-05-07T02:23:37;23.61;47.21
65472;DHT22;52068;50.710;14.492;2023-05-07T02:26:03;23.64;47.40
65472;DHT22;52068;50.710;14.492;2023-05-07T02:28:29;23.62;47.56
65472;DHT22;52068;50.710;14.492;2023-05-07T02:30:54;23.61;47.61
65472;DHT22;52068;50.710;14.492;2023-05-07T02:33:19;23.61;47.57
65472;DHT22;52068;50.710;14.492;2023-05-07T02:35:45;23.62;47.30
65472;DHT22;52068;50.710;14.492;2023-05-07T02:38:10;23.62;47.29
65472;DHT22;52068;50.710;14.492;2023-05-07T02:40:36;23.62;47.38
65472;DHT22;52068;50.710;14.492;2023-05-07T02:43:04;23.61;47.48
65472;DHT22;52068;50.710;14.492;2023-05-07T02:45:29;23.61;47.38
65472;DHT22;52068;50.710;14.492;2023-05-07T02:47:54;23.61;47.34
65472;DHT22;52068;50.710;14.492;2023-05-07T02:50:20;23.61;47.20
65472;DHT22;52068;50.710;14.492;2023-05-07T02:52:45;23.61;47.00
65472;DHT22;52068;50.710;14.492;2023-05-07T02:55:10;23.61;47.18
65472;DHT22;52068;50.710;14.492;2023-05-07T02:57:36;23.58;47.02
65472;DHT22;52068;50.710;14.492;2023-05-07T03:00:09;23.58;46.93
65472;DHT22;52068;50.710;14.492;2023-05-07T03:02:35;23.58;46.89
65472;DHT22;52068;50.710;14.492;2023-05-07T03:05:01;23.57;46.87
65472;DHT22;52068;50.710;14.492;2023-05-07T03:07:26;23.58;46.84
65472;DHT22;52068;50.710;14.492;2023-05-07T03:09:51;23.57;46.91
65472;DHT22;52068;50.710;14.492;2023-05-07T03:12:17;23.55;46.98
65472;DHT22;52068;50.710;14.492;2023-05-07T03:14:42;23.57;46.79
65472;DHT22;52068;50.710;14.492;2023-05-07T03:17:07;23.55;46.84
65472;DHT22;52068;50.710;14.492;2023-05-07T03:19:33;23.54;46.66
65472;DHT22;52068;50.710;14.492;2023-05-07T03:21:58;23.55;46.70
65472;DHT22;52068;50.710;14.492;2023-05-07T03:24:23;23.54;46.64
65472;DHT22;52068;50.710;14.492;2023-05-07T03:26:49;23.55;46.64
65472;DHT22;52068;50.710;14.492;2023-05-07T03:29:14;23.52;46.66
65472;DHT22;52068;50.710;14.492;2023-05-07T03:31:40;23.52;46.64
65472;DHT22;52068;50.710;14.492;2023-05-07T03:34:05;23.51;46.77
65472;DHT22;52068;50.710;14.492;2023-05-07T03:36:30;23.54;46.74
65472;DHT22;52068;50.710;14.492;2023-05-07T03:38:56;23.52;46.70
65472;DHT22;52068;50.710;14.492;2023-05-07T03:41:21;23.52;46.82
65472;DHT22;52068;50.710;14.492;2023-05-07T03:43:46;23.52;46.78
65472;DHT22;52068;50.710;14.492;2023-05-07T03:46:12;23.50;46.82
65472;DHT22;52068;50.710;14.492;2023-05-07T03:48:37;23.51;46.84
65472;DHT22;52068;50.710;14.492;2023-05-07T03:51:03;23.51;46.73
65472;DHT22;52068;50.710;14.492;2023-05-07T03:53:28;23.50;46.81
65472;DHT22;52068;50.710;14.492;2023-05-07T03:55:53;23.50;46.59
65472;DHT22;52068;50.710;14.492;2023-05-07T03:58:18;23.51;46.80
65472;DHT22;52068;50.710;14.492;2023-05-07T04:00:44;23.51;46.78
65472;DHT22;52068;50.710;14.492;2023-05-07T04:03:09;23.50;46.82
65472;DHT22;52068;50.710;14.492;2023-05-07T04:05:34;23.50;46.56
65472;DHT22;52068;50.710;14.492;2023-05-07T04:08:00;23.52;46.72
65472;DHT22;52068;50.710;14.492;2023-05-07T04:10:26;23.51;46.58
65472;DHT22;52068;50.710;14.492;2023-05-07T04:12:51;23.48;46.59
65472;DHT22;52068;50.710;14.492;2023-05-07T04:15:16;23.51;46.49
65472;DHT22;52068;50.710;14.492;2023-05-07T04:17:41;23.54;46.33
65472;DHT22;52068;50.710;14.492;2023-05-07T04:20:10;23.52;46.36
65472;DHT22;52068;50.710;14.492;2023-05-07T04:22:35;23.54;46.46
65472;DHT22;52068;50.710;14.492;2023-05-07T04:25:01;23.52;46.30
65472;DHT22;52068;50.710;14.492;2023-05-07T04:27:26;23.54;46.26
65472;DHT22;52068;50.710;14.492;2023-05-07T04:29:53;23.51;46.31
65472;DHT22;52068;50.710;14.492;2023-05-07T04:32:20;23.52;46.18
65472;DHT22;52068;50.710;14.492;2023-05-07T04:34:46;23.54;46.27
65472;DHT22;52068;50.710;14.492;2023-05-07T04:37:11;23.48;46.32
65472;DHT22;52068;50.710;14.492;2023-05-07T04:39:37;23.50;45.97
65472;DHT22;52068;50.710;14.492;2023-05-07T04:42:02;23.50;46.10
65472;DHT22;52068;50.710;14.492;2023-05-07T04:44:28;23.51;46.14
65472;DHT22;52068;50.710;14.492;2023-05-07T04:46:56;23.48;46.33
65472;DHT22;52068;50.710;14.492;2023-05-07T04:49:21;23.47;46.36
65472;DHT22;52068;50.710;14.492;2023-05-07T04:51:46;23.50;46.41
65472;DHT22;52068;50.710;14.492;2023-05-07T04:54:11;23.51;46.31
65472;DHT22;52068;50.710;14.492;2023-05-07T04:56:37;23.51;46.15
65472;DHT22;52068;50.710;14.492;2023-05-07T04:59:02;23.51;46.11
65472;DHT22;52068;50.710;14.492;2023-05-07T05:01:27;23.52;45.98
65472;DHT22;52068;50.710;14.492;2023-05-07T05:03:52;23.52;45.86
65472;DHT22;52068;50.710;14.492;2023-05-07T05:06:18;23.52;46.00
65472;DHT22;52068;50.710;14.492;2023-05-07T05:08:43;23.51;45.80
65472;DHT22;52068;50.710;14.492;2023-05-07T05:11:08;23.52;45.93
65472;DHT22;52068;50.710;14.492;2023-05-07T05:13:33;23.55;45.82
65472;DHT22;52068;50.710;14.492;2023-05-07T05:15:59;23.57;45.89
65472;DHT22;52068;50.710;14.492;2023-05-07T05:18:24;23.52;45.95
65472;DHT22;52068;50.710;14.492;2023-05-07T05:20:51;23.55;45.94
65472;DHT22;52068;50.710;14.492;2023-05-07T05:23:16;23.57;45.71
65472;DHT22;52068;50.710;14.492;2023-05-07T05:25:41;23.57;45.82
65472;DHT22;52068;50.710;14.492;2023-05-07T05:28:07;23.57;45.94
65472;DHT22;52068;50.710;14.492;2023-05-07T05:30:32;23.58;45.88
65472;DHT22;52068;50.710;14.492;2023-05-07T05:32:57;23.58;45.80
65472;DHT22;52068;50.710;14.492;2023-05-07T05:35:23;23.57;45.93
65472;DHT22;52068;50.710;14.492;2023-05-07T05:37:48;23.58;45.86
65472;DHT22;52068;50.710;14.492;2023-05-07T05:40:13;23.59;45.74
65472;DHT22;52068;50.710;14.492;2023-05-07T05:42:38;23.58;45.67
65472;DHT22;52068;50.710;14.492;2023-05-07T05:45:04;23.58;45.86
65472;DHT22;52068;50.710;14.492;2023-05-07T05:47:30;23.59;45.83
65472;DHT22;52068;50.710;14.492;2023-05-07T05:49:55;23.57;45.89
65472;DHT22;52068;50.710;14.492;2023-05-07T05:52:21;23.57;45.98
65472;DHT22;52068;50.710;14.492;2023-05-07T05:54:48;23.58;45.87
65472;DHT22;52068;50.710;14.492;2023-05-07T05:57:14;23.59;46.07
65472;DHT22;52068;50.710;14.492;2023-05-07T05:59:39;23.59;46.11
65472;DHT22;52068;50.710;14.492;2023-05-07T06:02:04;23.58;46.06
65472;DHT22;52068;50.710;14.492;2023-05-07T06:04:30;23.61;46.02
65472;DHT22;52068;50.710;14.492;2023-05-07T06:06:55;23.61;46.17
65472;DHT22;52068;50.710;14.492;2023-05-07T06:09:21;23.62;46.13
65472;DHT22;52068;50.710;14.492;2023-05-07T06:11:47;23.61;46.14
65472;DHT22;52068;50.710;14.492;2023-05-07T06:14:12;23.61;46.03
65472;DHT22;52068;50.710;14.492;2023-05-07T06:16:37;23.64;46.12
65472;DHT22;52068;50.710;14.492;2023-05-07T06:19:03;23.62;46.09
65472;DHT22;52068;50.710;14.492;2023-05-07T06:21:28;23.62;46.14
65472;DHT22;52068;50.710;14.492;2023-05-07T06:23:53;23.62;46.14
65472;DHT22;52068;50.710;14.492;2023-05-07T06:26:20;23.64;46.24
65472;DHT22;52068;50.710;14.492;2023-05-07T06:28:45;23.65;46.26
65472;DHT22;52068;50.710;14.492;2023-05-07T06:31:17;23.61;46.30
65472;DHT22;52068;50.710;14.492;2023-05-07T06:33:45;23.62;46.17
65472;DHT22;52068;50.710;14.492;2023-05-07T06:36:10;23.65;46.18
65472;DHT22;52068;50.710;14.492;2023-05-07T06:38:36;23.64;46.13
65472;DHT22;52068;50.710;14.492;2023-05-07T06:41:01;23.66;46.05
65472;DHT22;52068;50.710;14.492;2023-05-07T06:43:26;23.64;46.00
65472;DHT22;52068;50.710;14.492;2023-05-07T06:45:52;23.64;45.71
65472;DHT22;52068;50.710;14.492;2023-05-07T06:48:17;23.64;45.35
65472;DHT22;52068;50.710;14.492;2023-05-07T06:50:42;23.64;45.02
65472;DHT22;52068;50.710;14.492;2023-05-07T06:53:07;23.62;44.91
65472;DHT22;52068;50.710;14.492;2023-05-07T06:55:33;23.62;45.21
65472;DHT22;52068;50.710;14.492;2023-05-07T06:57:58;23.61;45.83
65472;DHT22;52068;50.710;14.492;2023-05-07T07:00:26;23.64;46.00
65472;DHT22;52068;50.710;14.492;2023-05-07T07:02:51;23.66;45.62
65472;DHT22;52068;50.710;14.492;2023-05-07T07:05:16;23.68;45.97
65472;DHT22;52068;50.710;14.492;2023-05-07T07:07:42;23.66;46.16
65472;DHT22;52068;50.710;14.492;2023-05-07T07:10:07;23.69;46.12
65472;DHT22;52068;50.710;14.492;2023-05-07T07:12:32;23.66;46.03
65472;DHT22;52068;50.710;14.492;2023-05-07T07:14:58;23.71;45.87
65472;DHT22;52068;50.710;14.492;2023-05-07T07:17:23;23.71;45.79
65472;DHT22;52068;50.710;14.492;2023-05-07T07:19:48;23.71;45.78
65472;DHT22;52068;50.710;14.492;2023-05-07T07:22:14;23.72;45.64
65472;DHT22;52068;50.710;14.492;2023-05-07T07:24:39;23.74;45.53
65472;DHT22;52068;50.710;14.492;2023-05-07T07:27:04;23.74;45.45
65472;DHT22;52068;50.710;14.492;2023-05-07T07:29:30;23.74;45.36
65472;DHT22;52068;50.710;14.492;2023-05-07T07:31:55;23.75;45.23
65472;DHT22;52068;50.710;14.492;2023-05-07T07:34:21;23.76;45.14
65472;DHT22;52068;50.710;14.492;2023-05-07T07:36:46;23.75;45.01
65472;DHT22;52068;50.710;14.492;2023-05-07T07:39:11;23.79;44.91
65472;DHT22;52068;50.710;14.492;2023-05-07T07:41:37;23.78;44.83
65472;DHT22;52068;50.710;14.492;2023-05-07T07:44:03;23.79;44.71
65472;DHT22;52068;50.710;14.492;2023-05-07T07:46:28;23.79;44.58
65472;DHT22;52068;50.710;14.492;2023-05-07T07:48:54;23.81;44.50
65472;DHT22;52068;50.710;14.492;2023-05-07T07:51:19;23.82;44.45
65472;DHT22;52068;50.710;14.492;2023-05-07T07:53:45;23.84;44.30
65472;DHT22;52068;50.710;14.492;2023-05-07T07:56:10;23.84;44.30
65472;DHT22;52068;50.710;14.492;2023-05-07T07:58:36;23.84;42.59
65472;DHT22;52068;50.710;14.492;2023-05-07T08:01:02;23.74;42.01
65472;DHT22;52068;50.710;14.492;2023-05-07T08:03:28;23.71;40.85
65472;DHT22;52068;50.710;14.492;2023-05-07T08:05:53;23.65;40.35
65472;DHT22;52068;50.710;14.492;2023-05-07T08:08:18;23.57;38.45
65472;DHT22;52068;50.710;14.492;2023-05-07T08:10:44;23.50;38.75
65472;DHT22;52068;50.710;14.492;2023-05-07T08:13:09;23.43;38.71
65472;DHT22;52068;50.710;14.492;2023-05-07T08:15:35;23.40;38.94
65472;DHT22;52068;50.710;14.492;2023-05-07T08:18:01;23.33;39.36
65472;DHT22;52068;50.710;14.492;2023-05-07T08:20:26;23.33;39.27
65472;DHT22;52068;50.710;14.492;2023-05-07T08:22:52;23.33;39.75
65472;DHT22;52068;50.710;14.492;2023-05-07T08:25:17;23.35;40.26
65472;DHT22;52068;50.710;14.492;2023-05-07T08:27:42;23.40;40.82
65472;DHT22;52068;50.710;14.492;2023-05-07T08:30:09;23.43;41.14
65472;DHT22;52068;50.710;14.492;2023-05-07T08:32:34;23.44;41.36
65472;DHT22;52068;50.710;14.492;2023-05-07T08:35:00;23.47;41.54
65472;DHT22;52068;50.710;14.492;2023-05-07T08:37:25;23.51;41.75
65472;DHT22;52068;50.710;14.492;2023-05-07T08:39:50;23.55;41.81
65472;DHT22;52068;50.710;14.492;2023-05-07T08:42:16;23.55;41.91
65472;DHT22;52068;50.710;14.492;2023-05-07T08:44:41;23.58;42.10
65472;DHT22;52068;50.710;14.492;2023-05-07T08:47:10;23.59;42.10
65472;DHT22;52068;50.710;14.492;2023-05-07T08:49:36;23.64;42.18
65472;DHT22;52068;50.710;14.492;2023-05-07T08:52:01;23.65;42.23
65472;DHT22;52068;50.710;14.492;2023-05-07T08:54:26;23.71;42.23
65472;DHT22;52068;50.710;14.492;2023-05-07T08:56:52;23.69;42.32
65472;DHT22;52068;50.710;14.492;2023-05-07T08:59:18;23.74;42.38
65472;DHT22;52068;50.710;14.492;2023-05-07T09:01:43;23.76;42.38
65472;DHT22;52068;50.710;14.492;2023-05-07T09:04:08;23.79;42.50
65472;DHT22;52068;50.710;14.492;2023-05-07T09:06:34;23.81;42.53
65472;DHT22;52068;50.710;14.492;2023-05-07T09:09:00;23.81;42.58
65472;DHT22;52068;50.710;14.492;2023-05-07T09:11:26;23.84;42.67
65472;DHT22;52068;50.710;14.492;2023-05-07T09:13:53;23.84;42.66
65472;DHT22;52068;50.710;14.492;2023-05-07T09:16:19;23.88;42.65
65472;DHT22;52068;50.710;14.492;2023-05-07T09:18:45;23.89;42.71
65472;DHT22;52068;50.710;14.492;2023-05-07T09:21:14;23.92;42.73
65472;DHT22;52068;50.710;14.492;2023-05-07T09:23:40;23.92;42.69
65472;DHT22;52068;50.710;14.492;2023-05-07T09:26:05;23.95;42.74
65472;DHT22;52068;50.710;14.492;2023-05-07T09:28:37;23.93;42.75
65472;DHT22;52068;50.710;14.492;2023-05-07T09:31:02;23.96;42.70
65472;DHT22;52068;50.710;14.492;2023-05-07T09:33:28;23.96;42.75
65472;DHT22;52068;50.710;14.492;2023-05-07T09:35:54;23.96;42.74
65472;DHT22;52068;50.710;14.492;2023-05-07T09:38:19;23.99;42.79
65472;DHT22;52068;50.710;14.492;2023-05-07T09:40:46;24.01;42.74
65472;DHT22;52068;50.710;14.492;2023-05-07T09:43:12;23.99;42.69
65472;DHT22;52068;50.710;14.492;2023-05-07T09:45:38;24.01;42.71
65472;DHT22;52068;50.710;14.492;2023-05-07T09:48:04;24.02;42.71
65472;DHT22;52068;50.710;14.492;2023-05-07T09:50:32;24.05;42.74
65472;DHT22;52068;50.710;14.492;2023-05-07T09:52:58;24.06;42.74
65472;DHT22;52068;50.710;14.492;2023-05-07T09:55:23;24.05;42.74
65472;DHT22;52068;50.710;14.492;2023-05-07T09:57:52;24.08;42.71
65472;DHT22;52068;50.710;14.492;2023-05-07T10:00:21;24.06;42.71
65472;DHT22;52068;50.710;14.492;2023-05-07T10:02:47;24.10;42.70
65472;DHT22;52068;50.710;14.492;2023-05-07T10:05:14;24.15;42.72
65472;DHT22;52068;50.710;14.492;2023-05-07T10:07:40;24.12;42.72
65472;DHT22;52068;50.710;14.492;2023-05-07T10:10:06;24.12;42.70
65472;DHT22;52068;50.710;14.492;2023-05-07T10:12:31;24.13;42.63
65472;DHT22;52068;50.710;14.492;2023-05-07T10:15:02;24.15;42.68
65472;DHT22;52068;50.710;14.492;2023-05-07T10:17:28;24.13;42.54
65472;DHT22;52068;50.710;14.492;2023-05-07T10:19:54;24.16;42.62
65472;DHT22;52068;50.710;14.492;2023-05-07T10:22:19;24.15;42.62
65472;DHT22;52068;50.710;14.492;2023-05-07T10:24:45;24.17;42.61
65472;DHT22;52068;50.710;14.492;2023-05-07T10:27:12;24.17;42.57
65472;DHT22;52068;50.710;14.492;2023-05-07T10:29:45;24.19;42.53
65472;DHT22;52068;50.710;14.492;2023-05-07T10:32:25;24.20;42.46
65472;DHT22;52068;50.710;14.492;2023-05-07T10:34:55;24.20;42.49
65472;DHT22;52068;50.710;14.492;2023-05-07T10:37:21;24.23;42.48
65472;DHT22;52068;50.710;14.492;2023-05-07T10:39:46;24.22;42.44
65472;DHT22;52068;50.710;14.492;2023-05-07T10:42:13;24.24;42.41
65472;DHT22;52068;50.710;14.492;2023-05-07T10:44:38;24.26;42.41
65472;DHT22;52068;50.710;14.492;2023-05-07T10:47:11;24.29;42.38
65472;DHT22;52068;50.710;14.492;2023-05-07T10:49:46;24.27;42.33
65472;DHT22;52068;50.710;14.492;2023-05-07T10:52:22;24.27;42.25
65472;DHT22;52068;50.710;14.492;2023-05-07T10:57:35;24.29;42.20
65472;DHT22;52068;50.710;14.492;2023-05-07T11:00:01;24.29;42.22
65472;DHT22;52068;50.710;14.492;2023-05-07T11:05:20;24.29;42.17
65472;DHT22;52068;50.710;14.492;2023-05-07T11:07:54;24.30;42.05
65472;DHT22;52068;50.710;14.492;2023-05-07T11:10:20;24.27;41.98
65472;DHT22;52068;50.710;14.492;2023-05-07T11:12:46;24.32;42.05
65472;DHT22;52068;50.710;14.492;2023-05-07T11:15:12;24.32;42.09
65472;DHT22;52068;50.710;14.492;2023-05-07T11:17:57;24.30;42.05
65472;DHT22;52068;50.710;14.492;2023-05-07T11:23:08;24.29;42.14
65472;DHT22;52068;50.710;14.492;2023-05-07T11:25:33;24.30;42.11
65472;DHT22;52068;50.710;14.492;2023-05-07T11:28:04;24.32;42.17
65472;DHT22;52068;50.710;14.492;2023-05-07T11:30:29;24.29;42.14
65472;DHT22;52068;50.710;14.492;2023-05-07T11:32:55;24.30;42.15
65472;DHT22;52068;50.710;14.492;2023-05-07T11:35:22;24.30;42.16
65472;DHT22;52068;50.710;14.492;2023-05-07T11:37:48;24.32;42.05
65472;DHT22;52068;50.710;14.492;2023-05-07T11:40:13;24.30;42.07
65472;DHT22;52068;50.710;14.492;2023-05-07T11:42:39;24.30;42.14
65472;DHT22;52068;50.710;14.492;2023-05-07T11:45:06;24.30;42.08
65472;DHT22;52068;50.710;14.492;2023-05-07T11:47:32;24.32;42.17
65472;DHT22;52068;50.710;14.492;2023-05-07T11:50:02;24.33;42.17
65472;DHT22;52068;50.710;14.492;2023-05-07T11:52:28;24.33;42.07
65472;DHT22;52068;50.710;14.492;2023-05-07T11:54:56;24.32;42.17
65472;DHT22;52068;50.710;14.492;2023-05-07T11:57:22;24.32;42.08
65472;DHT22;52068;50.710;14.492;2023-05-07T11:59:48;24.32;42.21
65472;DHT22;52068;50.710;14.492;2023-05-07T12:02:17;24.33;42.21
65472;DHT22;52068;50.710;14.492;2023-05-07T12:04:43;24.33;42.29
65472;DHT22;52068;50.710;14.492;2023-05-07T12:07:14;24.33;42.34
65472;DHT22;52068;50.710;14.492;2023-05-07T12:09:40;24.32;42.31
65472;DHT22;52068;50.710;14.492;2023-05-07T12:12:06;24.33;42.31
65472;DHT22;52068;50.710;14.492;2023-05-07T12:14:31;24.36;42.25
65472;DHT22;52068;50.710;14.492;2023-05-07T12:16:57;24.32;42.35
65472;DHT22;52068;50.710;14.492;2023-05-07T12:19:23;24.34;42.31
65472;DHT22;52068;50.710;14.492;2023-05-07T12:21:49;24.34;42.31
65472;DHT22;52068;50.710;14.492;2023-05-07T12:24:14;24.36;42.34
65472;DHT22;52068;50.710;14.492;2023-05-07T12:26:40;24.37;42.28
65472;DHT22;52068;50.710;14.492;2023-05-07T12:29:05;24.37;42.33
65472;DHT22;52068;50.710;14.492;2023-05-07T12:31:31;24.39;42.13
65472;DHT22;52068;50.710;14.492;2023-05-07T12:33:56;24.40;42.07
65472;DHT22;52068;50.710;14.492;2023-05-07T12:36:21;24.40;41.96
65472;DHT22;52068;50.710;14.492;2023-05-07T12:38:48;24.39;42.09
65472;DHT22;52068;50.710;14.492;2023-05-07T12:41:15;24.40;41.95
65472;DHT22;52068;50.710;14.492;2023-05-07T12:43:42;24.43;41.88
65472;DHT22;52068;50.710;14.492;2023-05-07T12:46:08;24.41;41.69
65472;DHT22;52068;50.710;14.492;2023-05-07T12:48:38;24.41;41.65
65472;DHT22;52068;50.710;14.492;2023-05-07T12:51:08;24.46;41.60
65472;DHT22;52068;50.710;14.492;2023-05-07T12:53:39;24.41;41.49
65472;DHT22;52068;50.710;14.492;2023-05-07T12:56:04;24.43;41.51
65472;DHT22;52068;50.710;14.492;2023-05-07T12:58:31;24.43;41.54
65472;DHT22;52068;50.710;14.492;2023-05-07T13:00:59;24.43;41.50
65472;DHT22;52068;50.710;14.492;2023-05-07T13:03:27;24.44;41.43
65472;DHT22;52068;50.710;14.492;2023-05-07T13:05:52;24.43;41.45
65472;DHT22;52068;50.710;14.492;2023-05-07T13:08:28;24.44;41.41
65472;DHT22;52068;50.710;14.492;2023-05-07T13:10:54;24.46;41.50
65472;DHT22;52068;50.710;14.492;2023-05-07T13:13:19;24.44;41.42
65472;DHT22;52068;50.710;14.492;2023-05-07T13:15:45;24.41;41.35
65472;DHT22;52068;50.710;14.492;2023-05-07T13:18:10;24.44;41.26
65472;DHT22;52068;50.710;14.492;2023-05-07T13:20:36;24.43;41.13
65472;DHT22;52068;50.710;14.492;2023-05-07T13:23:01;24.43;41.14
65472;DHT22;52068;50.710;14.492;2023-05-07T13:25:29;24.44;41.09
65472;DHT22;52068;50.710;14.492;2023-05-07T13:27:54;24.43;41.17
65472;DHT22;52068;50.710;14.492;2023-05-07T13:30:19;24.43;41.14
65472;DHT22;52068;50.710;14.492;2023-05-07T13:32:45;24.43;41.20
65472;DHT22;52068;50.710;14.492;2023-05-07T13:35:12;24.43;41.30
65472;DHT22;52068;50.710;14.492;2023-05-07T13:37:38;24.44;41.30
65472;DHT22;52068;50.710;14.492;2023-05-07T13:40:03;24.41;41.38
65472;DHT22;52068;50.710;14.492;2023-05-07T13:42:29;24.41;41.47
65472;DHT22;52068;50.710;14.492;2023-05-07T13:44:55;24.41;41.35
65472;DHT22;52068;50.710;14.492;2023-05-07T13:47:21;24.43;41.37
65472;DHT22;52068;50.710;14.492;2023-05-07T13:49:47;24.44;41.38
65472;DHT22;52068;50.710;14.492;2023-05-07T13:52:14;24.43;41.26
65472;DHT22;52068;50.710;14.492;2023-05-07T13:54:39;24.43;41.16
65472;DHT22;52068;50.710;14.492;2023-05-07T13:57:05;24.44;41.05
65472;DHT22;52068;50.710;14.492;2023-05-07T13:59:30;24.46;41.02
65472;DHT22;52068;50.710;14.492;2023-05-07T14:01:55;24.47;40.87
65472;DHT22;52068;50.710;14.492;2023-05-07T14:04:21;24.50;40.66
65472;DHT22;52068;50.710;14.492;2023-05-07T14:06:46;24.56;40.62
65472;DHT22;52068;50.710;14.492;2023-05-07T14:09:11;24.60;40.50
65472;DHT22;52068;50.710;14.492;2023-05-07T14:11:38;24.61;40.15
65472;DHT22;52068;50.710;14.492;2023-05-07T14:14:03;24.65;39.86
65472;DHT22;52068;50.710;14.492;2023-05-07T14:16:29;24.68;39.64
65472;DHT22;52068;50.710;14.492;2023-05-07T14:18:54;24.73;39.72
65472;DHT22;52068;50.710;14.492;2023-05-07T14:21:19;24.74;39.45
65472;DHT22;52068;50.710;14.492;2023-05-07T14:23:44;24.74;39.37
65472;DHT22;52068;50.710;14.492;2023-05-07T14:26:10;24.75;39.58
65472;DHT22;52068;50.710;14.492;2023-05-07T14:28:35;24.74;39.97
65472;DHT22;52068;50.710;14.492;2023-05-07T14:31:00;24.71;40.24
65472;DHT22;52068;50.710;14.492;2023-05-07T14:33:26;24.71;39.60
65472;DHT22;52068;50.710;14.492;2023-05-07T14:35:52;24.70;39.38
65472;DHT22;52068;50.710;14.492;2023-05-07T14:38:17;24.68;39.29
65472;DHT22;52068;50.710;14.492;2023-05-07T14:40:42;24.65;39.27
65472;DHT22;52068;50.710;14.492;2023-05-07T14:43:07;24.64;39.26
65472;DHT22;52068;50.710;14.492;2023-05-07T14:45:33;24.61;39.20
65472;DHT22;52068;50.710;14.492;2023-05-07T14:47:58;24.64;39.10
65472;DHT22;52068;50.710;14.492;2023-05-07T14:50:23;24.61;39.30
65472;DHT22;52068;50.710;14.492;2023-05-07T14:52:49;24.60;39.45
65472;DHT22;52068;50.710;14.492;2023-05-07T14:55:14;24.59;39.13
65472;DHT22;52068;50.710;14.492;2023-05-07T14:57:39;24.59;39.04
65472;DHT22;52068;50.710;14.492;2023-05-07T15:00:05;24.57;39.06
65472;DHT22;52068;50.710;14.492;2023-05-07T15:02:31;24.56;39.07
65472;DHT22;52068;50.710;14.492;2023-05-07T15:04:57;24.53;39.01
65472;DHT22;52068;50.710;14.492;2023-05-07T15:07:23;24.53;38.92
65472;DHT22;52068;50.710;14.492;2023-05-07T15:09:49;24.52;39.14
65472;DHT22;52068;50.710;14.492;2023-05-07T15:12:15;24.53;39.12
65472;DHT22;52068;50.710;14.492;2023-05-07T15:14:40;24.52;39.26